EEPU

Pärnu Airport

Pärnu, Estonia
METAR EEPU 240750Z 33009KT 290V360 CAVOK 19/10 Q1026
Observed Flight Rules
May-24 @ 07:50 UTC (14 minutes ago) Visual Flight Rules
Wind Visibility Clouds
330° at 9 knots 10,000+ meters
  • Clear skies
Temperatures Readings
Current 19°C / 66°F
Dewpoint 10°C / 50°F
Humidity 56%
Altimeter 30.3" Hg
Pressure 1026 hPa
Elevation 14
METAR EEPU 240750Z 33009KT 290V360 CAVOK 19/10 Q1026
Observed Flight Rules
May-24 @ 07:50 UTC
(14 minutes ago)
VFR
Wind Visibility
330° at 9 knots 10,000+ meters
Clouds
  • Clear skies
Temperature Dewpoint
19°C / 66°F 10°C / 50°F
Humidity Altimeter Pressure
56% 30.3" Hg 1026 hPa